sensor_id;sensor_type;location;lat;lon;timestamp;P1;durP1;ratioP1;P2;durP2;ratioP2
68140;SDS011;54941;52.220;104.306;2022-11-12T00:02:24;67.63;;;17.65;;
68140;SDS011;54941;52.220;104.306;2022-11-12T00:04:50;69.55;;;18.13;;
68140;SDS011;54941;52.220;104.306;2022-11-12T00:07:17;78.05;;;17.70;;
68140;SDS011;54941;52.220;104.306;2022-11-12T00:09:43;75.75;;;18.48;;
68140;SDS011;54941;52.220;104.306;2022-11-12T00:12:09;92.55;;;20.70;;
68140;SDS011;54941;52.220;104.306;2022-11-12T00:14:37;58.15;;;18.77;;
68140;SDS011;54941;52.220;104.306;2022-11-12T00:17:04;46.75;;;15.82;;
68140;SDS011;54941;52.220;104.306;2022-11-12T00:19:30;51.58;;;18.27;;
68140;SDS011;54941;52.220;104.306;2022-11-12T00:21:56;44.28;;;16.55;;
68140;SDS011;54941;52.220;104.306;2022-11-12T00:24:23;46.22;;;16.83;;
68140;SDS011;54941;52.220;104.306;2022-11-12T00:26:49;52.70;;;18.25;;
68140;SDS011;54941;52.220;104.306;2022-11-12T00:29:15;57.85;;;19.45;;
68140;SDS011;54941;52.220;104.306;2022-11-12T00:31:43;56.00;;;18.88;;
68140;SDS011;54941;52.220;104.306;2022-11-12T00:34:09;48.75;;;18.10;;
68140;SDS011;54941;52.220;104.306;2022-11-12T00:36:36;61.70;;;19.80;;
68140;SDS011;54941;52.220;104.306;2022-11-12T00:39:02;52.78;;;16.98;;
68140;SDS011;54941;52.220;104.306;2022-11-12T00:41:29;51.25;;;17.85;;
68140;SDS011;54941;52.220;104.306;2022-11-12T00:43:55;59.38;;;19.52;;
68140;SDS011;54941;52.220;104.306;2022-11-12T00:46:22;56.58;;;18.77;;
68140;SDS011;54941;52.220;104.306;2022-11-12T00:48:49;61.30;;;19.63;;
68140;SDS011;54941;52.220;104.306;2022-11-12T00:51:16;52.13;;;18.23;;
68140;SDS011;54941;52.220;104.306;2022-11-12T00:53:42;48.88;;;17.90;;
68140;SDS011;54941;52.220;104.306;2022-11-12T00:56:12;49.47;;;17.17;;
68140;SDS011;54941;52.220;104.306;2022-11-12T00:58:38;40.25;;;15.00;;
68140;SDS011;54941;52.220;104.306;2022-11-12T01:01:05;55.17;;;18.50;;
68140;SDS011;54941;52.220;104.306;2022-11-12T01:03:33;51.47;;;18.67;;
68140;SDS011;54941;52.220;104.306;2022-11-12T01:06:05;41.95;;;16.63;;
68140;SDS011;54941;52.220;104.306;2022-11-12T01:08:32;53.28;;;16.02;;
68140;SDS011;54941;52.220;104.306;2022-11-12T01:11:04;47.55;;;17.42;;
68140;SDS011;54941;52.220;104.306;2022-11-12T01:13:31;47.45;;;16.75;;
68140;SDS011;54941;52.220;104.306;2022-11-12T01:15:58;54.03;;;17.67;;
68140;SDS011;54941;52.220;104.306;2022-11-12T01:18:24;45.22;;;16.33;;
68140;SDS011;54941;52.220;104.306;2022-11-12T01:20:50;40.35;;;14.30;;
68140;SDS011;54941;52.220;104.306;2022-11-12T01:23:18;49.28;;;18.08;;
68140;SDS011;54941;52.220;104.306;2022-11-12T01:25:44;49.88;;;17.38;;
68140;SDS011;54941;52.220;104.306;2022-11-12T01:28:11;48.80;;;18.75;;
68140;SDS011;54941;52.220;104.306;2022-11-12T01:30:37;53.58;;;17.95;;
68140;SDS011;54941;52.220;104.306;2022-11-12T01:33:03;45.70;;;17.42;;
68140;SDS011;54941;52.220;104.306;2022-11-12T01:35:30;56.42;;;19.13;;
68140;SDS011;54941;52.220;104.306;2022-11-12T01:37:56;52.00;;;19.15;;
68140;SDS011;54941;52.220;104.306;2022-11-12T01:40:24;65.30;;;25.58;;
68140;SDS011;54941;52.220;104.306;2022-11-12T01:42:50;75.30;;;27.48;;
68140;SDS011;54941;52.220;104.306;2022-11-12T01:45:17;66.20;;;25.02;;
68140;SDS011;54941;52.220;104.306;2022-11-12T01:47:43;72.90;;;26.05;;
68140;SDS011;54941;52.220;104.306;2022-11-12T01:50:14;59.95;;;23.20;;
68140;SDS011;54941;52.220;104.306;2022-11-12T01:52:45;56.03;;;20.98;;
68140;SDS011;54941;52.220;104.306;2022-11-12T01:55:15;62.78;;;22.55;;
68140;SDS011;54941;52.220;104.306;2022-11-12T01:57:47;67.88;;;25.25;;
68140;SDS011;54941;52.220;104.306;2022-11-12T02:00:16;63.35;;;22.73;;
68140;SDS011;54941;52.220;104.306;2022-11-12T02:02:43;64.25;;;23.15;;
68140;SDS011;54941;52.220;104.306;2022-11-12T02:05:14;73.22;;;25.45;;
68140;SDS011;54941;52.220;104.306;2022-11-12T02:07:43;74.15;;;25.65;;
68140;SDS011;54941;52.220;104.306;2022-11-12T02:10:12;73.85;;;26.60;;
68140;SDS011;54941;52.220;104.306;2022-11-12T02:12:39;75.00;;;28.55;;
68140;SDS011;54941;52.220;104.306;2022-11-12T02:15:27;71.97;;;24.70;;
68140;SDS011;54941;52.220;104.306;2022-11-12T02:17:53;77.10;;;27.70;;
68140;SDS011;54941;52.220;104.306;2022-11-12T02:20:20;70.25;;;26.42;;
68140;SDS011;54941;52.220;104.306;2022-11-12T02:22:47;76.88;;;21.02;;
68140;SDS011;54941;52.220;104.306;2022-11-12T02:25:15;54.05;;;18.35;;
68140;SDS011;54941;52.220;104.306;2022-11-12T02:27:44;72.82;;;25.88;;
68140;SDS011;54941;52.220;104.306;2022-11-12T02:30:11;52.40;;;19.35;;
68140;SDS011;54941;52.220;104.306;2022-11-12T02:32:38;43.45;;;15.38;;
68140;SDS011;54941;52.220;104.306;2022-11-12T02:35:05;77.53;;;17.17;;
68140;SDS011;54941;52.220;104.306;2022-11-12T02:37:32;72.93;;;15.82;;
68140;SDS011;54941;52.220;104.306;2022-11-12T02:39:59;72.65;;;15.20;;
68140;SDS011;54941;52.220;104.306;2022-11-12T02:42:26;53.50;;;20.23;;
68140;SDS011;54941;52.220;104.306;2022-11-12T02:44:52;67.25;;;24.65;;
68140;SDS011;54941;52.220;104.306;2022-11-12T02:47:18;56.22;;;20.63;;
68140;SDS011;54941;52.220;104.306;2022-11-12T02:49:45;52.85;;;17.25;;
68140;SDS011;54941;52.220;104.306;2022-11-12T02:52:11;50.83;;;17.52;;
68140;SDS011;54941;52.220;104.306;2022-11-12T02:54:38;49.05;;;17.35;;
68140;SDS011;54941;52.220;104.306;2022-11-12T02:57:05;42.53;;;15.27;;
68140;SDS011;54941;52.220;104.306;2022-11-12T02:59:32;50.40;;;15.65;;
68140;SDS011;54941;52.220;104.306;2022-11-12T03:01:58;32.75;;;14.02;;
68140;SDS011;54941;52.220;104.306;2022-11-12T03:04:24;58.72;;;17.25;;
68140;SDS011;54941;52.220;104.306;2022-11-12T03:06:51;45.70;;;14.65;;
68140;SDS011;54941;52.220;104.306;2022-11-12T03:09:17;50.00;;;15.38;;
68140;SDS011;54941;52.220;104.306;2022-11-12T03:11:43;39.97;;;15.00;;
68140;SDS011;54941;52.220;104.306;2022-11-12T03:14:11;46.15;;;17.17;;
68140;SDS011;54941;52.220;104.306;2022-11-12T03:16:37;41.80;;;17.45;;
68140;SDS011;54941;52.220;104.306;2022-11-12T03:19:04;32.75;;;13.38;;
68140;SDS011;54941;52.220;104.306;2022-11-12T03:21:30;41.63;;;16.27;;
68140;SDS011;54941;52.220;104.306;2022-11-12T03:23:57;43.13;;;17.95;;
68140;SDS011;54941;52.220;104.306;2022-11-12T03:26:23;58.38;;;21.63;;
68140;SDS011;54941;52.220;104.306;2022-11-12T03:28:49;51.05;;;20.50;;
68140;SDS011;54941;52.220;104.306;2022-11-12T03:31:17;58.25;;;20.33;;
68140;SDS011;54941;52.220;104.306;2022-11-12T03:33:44;47.85;;;17.95;;
68140;SDS011;54941;52.220;104.306;2022-11-12T03:36:11;60.53;;;20.83;;
68140;SDS011;54941;52.220;104.306;2022-11-12T03:38:37;51.25;;;18.67;;
68140;SDS011;54941;52.220;104.306;2022-11-12T03:41:03;28.92;;;11.65;;
68140;SDS011;54941;52.220;104.306;2022-11-12T03:49:19;15.55;;;7.18;;
68140;SDS011;54941;52.220;104.306;2022-11-12T03:52:03;18.25;;;7.15;;
68140;SDS011;54941;52.220;104.306;2022-11-12T03:54:30;14.07;;;6.93;;
68140;SDS011;54941;52.220;104.306;2022-11-12T03:56:56;18.77;;;8.30;;
68140;SDS011;54941;52.220;104.306;2022-11-12T03:59:22;16.17;;;7.18;;
68140;SDS011;54941;52.220;104.306;2022-11-12T04:01:50;15.75;;;7.82;;
68140;SDS011;54941;52.220;104.306;2022-11-12T04:04:17;14.90;;;6.22;;
68140;SDS011;54941;52.220;104.306;2022-11-12T04:06:43;15.70;;;6.55;;
68140;SDS011;54941;52.220;104.306;2022-11-12T04:09:09;14.02;;;6.05;;
68140;SDS011;54941;52.220;104.306;2022-11-12T04:11:36;13.68;;;6.55;;
68140;SDS011;54941;52.220;104.306;2022-11-12T04:14:02;14.85;;;6.40;;
68140;SDS011;54941;52.220;104.306;2022-11-12T04:16:28;13.80;;;6.38;;
68140;SDS011;54941;52.220;104.306;2022-11-12T04:18:57;12.52;;;5.82;;
68140;SDS011;54941;52.220;104.306;2022-11-12T04:21:25;13.05;;;6.40;;
68140;SDS011;54941;52.220;104.306;2022-11-12T04:23:55;12.15;;;6.63;;
68140;SDS011;54941;52.220;104.306;2022-11-12T04:26:22;16.05;;;7.05;;
68140;SDS011;54941;52.220;104.306;2022-11-12T04:28:48;15.00;;;6.70;;
68140;SDS011;54941;52.220;104.306;2022-11-12T04:31:14;11.90;;;5.68;;
68140;SDS011;54941;52.220;104.306;2022-11-12T04:33:41;13.07;;;6.07;;
68140;SDS011;54941;52.220;104.306;2022-11-12T04:36:09;13.40;;;5.10;;
68140;SDS011;54941;52.220;104.306;2022-11-12T04:38:35;10.65;;;4.72;;
68140;SDS011;54941;52.220;104.306;2022-11-12T04:41:01;13.15;;;5.25;;
68140;SDS011;54941;52.220;104.306;2022-11-12T04:43:27;11.18;;;4.93;;
68140;SDS011;54941;52.220;104.306;2022-11-12T04:45:54;19.67;;;6.95;;
68140;SDS011;54941;52.220;104.306;2022-11-12T04:48:21;17.27;;;6.50;;
68140;SDS011;54941;52.220;104.306;2022-11-12T04:50:48;17.65;;;7.25;;
68140;SDS011;54941;52.220;104.306;2022-11-12T04:53:19;13.77;;;5.53;;
68140;SDS011;54941;52.220;104.306;2022-11-12T04:55:48;9.98;;;4.47;;
68140;SDS011;54941;52.220;104.306;2022-11-12T04:58:15;7.80;;;4.20;;
68140;SDS011;54941;52.220;104.306;2022-11-12T05:00:41;5.03;;;2.67;;
68140;SDS011;54941;52.220;104.306;2022-11-12T05:03:10;4.57;;;2.15;;
68140;SDS011;54941;52.220;104.306;2022-11-12T05:05:37;5.53;;;2.25;;
68140;SDS011;54941;52.220;104.306;2022-11-12T05:08:03;5.63;;;2.55;;
68140;SDS011;54941;52.220;104.306;2022-11-12T05:10:31;7.18;;;3.53;;
68140;SDS011;54941;52.220;104.306;2022-11-12T05:12:58;11.55;;;4.88;;
68140;SDS011;54941;52.220;104.306;2022-11-12T05:15:24;6.65;;;3.45;;
68140;SDS011;54941;52.220;104.306;2022-11-12T05:17:51;4.18;;;2.42;;
68140;SDS011;54941;52.220;104.306;2022-11-12T05:20:17;7.50;;;3.10;;
68140;SDS011;54941;52.220;104.306;2022-11-12T05:22:44;4.07;;;2.45;;
68140;SDS011;54941;52.220;104.306;2022-11-12T05:25:10;4.60;;;2.25;;
68140;SDS011;54941;52.220;104.306;2022-11-12T05:27:38;4.93;;;2.40;;
68140;SDS011;54941;52.220;104.306;2022-11-12T05:30:04;4.68;;;2.83;;
68140;SDS011;54941;52.220;104.306;2022-11-12T05:32:31;6.43;;;3.00;;
68140;SDS011;54941;52.220;104.306;2022-11-12T05:34:58;6.05;;;2.92;;
68140;SDS011;54941;52.220;104.306;2022-11-12T05:37:24;5.60;;;2.92;;
68140;SDS011;54941;52.220;104.306;2022-11-12T05:39:50;6.00;;;2.80;;
68140;SDS011;54941;52.220;104.306;2022-11-12T05:42:17;4.95;;;2.28;;
68140;SDS011;54941;52.220;104.306;2022-11-12T05:44:44;10.40;;;4.85;;
68140;SDS011;54941;52.220;104.306;2022-11-12T05:47:11;4.93;;;2.58;;
68140;SDS011;54941;52.220;104.306;2022-11-12T05:49:37;5.85;;;2.85;;
68140;SDS011;54941;52.220;104.306;2022-11-12T05:52:03;5.22;;;2.22;;
68140;SDS011;54941;52.220;104.306;2022-11-12T05:54:30;4.25;;;2.10;;
68140;SDS011;54941;52.220;104.306;2022-11-12T05:56:56;4.43;;;2.25;;
68140;SDS011;54941;52.220;104.306;2022-11-12T05:59:22;4.47;;;2.38;;
68140;SDS011;54941;52.220;104.306;2022-11-12T06:01:50;4.68;;;2.30;;
68140;SDS011;54941;52.220;104.306;2022-11-12T06:04:17;4.72;;;2.88;;
68140;SDS011;54941;52.220;104.306;2022-11-12T06:06:43;4.55;;;2.58;;
68140;SDS011;54941;52.220;104.306;2022-11-12T06:09:09;4.60;;;2.05;;
68140;SDS011;54941;52.220;104.306;2022-11-12T06:11:36;5.53;;;2.60;;
68140;SDS011;54941;52.220;104.306;2022-11-12T06:14:03;5.22;;;2.42;;
68140;SDS011;54941;52.220;104.306;2022-11-12T06:16:30;4.57;;;2.33;;
68140;SDS011;54941;52.220;104.306;2022-11-12T06:18:58;4.93;;;2.38;;
68140;SDS011;54941;52.220;104.306;2022-11-12T06:21:25;4.35;;;2.30;;
68140;SDS011;54941;52.220;104.306;2022-11-12T06:23:51;5.00;;;2.25;;
68140;SDS011;54941;52.220;104.306;2022-11-12T06:26:19;3.88;;;2.25;;
68140;SDS011;54941;52.220;104.306;2022-11-12T06:28:46;5.88;;;2.50;;
68140;SDS011;54941;52.220;104.306;2022-11-12T06:31:13;4.20;;;2.22;;
68140;SDS011;54941;52.220;104.306;2022-11-12T06:33:40;4.25;;;2.33;;
68140;SDS011;54941;52.220;104.306;2022-11-12T06:36:09;5.03;;;2.72;;
68140;SDS011;54941;52.220;104.306;2022-11-12T06:38:36;4.30;;;2.22;;
68140;SDS011;54941;52.220;104.306;2022-11-12T06:41:04;13.10;;;6.05;;
68140;SDS011;54941;52.220;104.306;2022-11-12T06:43:31;6.35;;;3.03;;
68140;SDS011;54941;52.220;104.306;2022-11-12T06:45:59;6.70;;;3.22;;
68140;SDS011;54941;52.220;104.306;2022-11-12T06:48:26;4.55;;;2.40;;
68140;SDS011;54941;52.220;104.306;2022-11-12T06:50:52;3.92;;;2.13;;
68140;SDS011;54941;52.220;104.306;2022-11-12T06:53:20;4.07;;;2.17;;
68140;SDS011;54941;52.220;104.306;2022-11-12T06:55:47;4.55;;;2.70;;
68140;SDS011;54941;52.220;104.306;2022-11-12T06:58:13;4.75;;;2.47;;
68140;SDS011;54941;52.220;104.306;2022-11-12T07:00:39;6.50;;;3.53;;
68140;SDS011;54941;52.220;104.306;2022-11-12T07:03:06;6.68;;;3.63;;
68140;SDS011;54941;52.220;104.306;2022-11-12T07:05:34;4.95;;;2.88;;
68140;SDS011;54941;52.220;104.306;2022-11-12T07:08:01;4.45;;;2.70;;
68140;SDS011;54941;52.220;104.306;2022-11-12T07:10:29;4.32;;;2.22;;
68140;SDS011;54941;52.220;104.306;2022-11-12T07:12:55;5.07;;;2.63;;
68140;SDS011;54941;52.220;104.306;2022-11-12T07:15:22;4.78;;;2.72;;
68140;SDS011;54941;52.220;104.306;2022-11-12T07:17:48;5.93;;;3.00;;
68140;SDS011;54941;52.220;104.306;2022-11-12T07:20:14;4.63;;;2.95;;
68140;SDS011;54941;52.220;104.306;2022-11-12T07:22:41;5.95;;;3.42;;
68140;SDS011;54941;52.220;104.306;2022-11-12T07:25:07;5.63;;;2.65;;
68140;SDS011;54941;52.220;104.306;2022-11-12T07:27:35;6.97;;;3.85;;
68140;SDS011;54941;52.220;104.306;2022-11-12T07:30:02;6.57;;;3.00;;
68140;SDS011;54941;52.220;104.306;2022-11-12T07:32:29;6.63;;;3.25;;
68140;SDS011;54941;52.220;104.306;2022-11-12T07:34:55;7.03;;;3.70;;
68140;SDS011;54941;52.220;104.306;2022-11-12T07:37:21;6.60;;;3.80;;
68140;SDS011;54941;52.220;104.306;2022-11-12T07:39:48;7.95;;;4.75;;
68140;SDS011;54941;52.220;104.306;2022-11-12T07:42:14;6.97;;;4.32;;
68140;SDS011;54941;52.220;104.306;2022-11-12T07:44:44;7.78;;;4.55;;
68140;SDS011;54941;52.220;104.306;2022-11-12T07:47:15;7.28;;;4.13;;
68140;SDS011;54941;52.220;104.306;2022-11-12T07:49:42;6.97;;;3.83;;
68140;SDS011;54941;52.220;104.306;2022-11-12T07:52:08;5.75;;;3.25;;
68140;SDS011;54941;52.220;104.306;2022-11-12T07:54:34;12.38;;;6.25;;
68140;SDS011;54941;52.220;104.306;2022-11-12T07:57:01;9.45;;;4.10;;
68140;SDS011;54941;52.220;104.306;2022-11-12T07:59:27;7.60;;;3.53;;
68140;SDS011;54941;52.220;104.306;2022-11-12T08:01:55;8.20;;;3.95;;
68140;SDS011;54941;52.220;104.306;2022-11-12T08:04:21;6.90;;;3.50;;
68140;SDS011;54941;52.220;104.306;2022-11-12T08:06:47;6.00;;;3.03;;
68140;SDS011;54941;52.220;104.306;2022-11-12T08:09:14;10.07;;;4.10;;
68140;SDS011;54941;52.220;104.306;2022-11-12T08:11:48;8.77;;;3.80;;
68140;SDS011;54941;52.220;104.306;2022-11-12T08:14:14;6.47;;;3.53;;
68140;SDS011;54941;52.220;104.306;2022-11-12T08:16:40;5.70;;;3.10;;
68140;SDS011;54941;52.220;104.306;2022-11-12T08:19:08;5.47;;;2.83;;
68140;SDS011;54941;52.220;104.306;2022-11-12T08:21:35;5.57;;;3.08;;
68140;SDS011;54941;52.220;104.306;2022-11-12T08:24:01;5.03;;;2.63;;
68140;SDS011;54941;52.220;104.306;2022-11-12T08:26:30;5.35;;;2.85;;
68140;SDS011;54941;52.220;104.306;2022-11-12T08:28:56;8.60;;;4.10;;
68140;SDS011;54941;52.220;104.306;2022-11-12T08:31:23;9.10;;;4.60;;
68140;SDS011;54941;52.220;104.306;2022-11-12T08:33:49;11.15;;;5.80;;
68140;SDS011;54941;52.220;104.306;2022-11-12T08:36:17;10.77;;;4.72;;
68140;SDS011;54941;52.220;104.306;2022-11-12T08:38:43;9.05;;;4.40;;
68140;SDS011;54941;52.220;104.306;2022-11-12T08:41:10;9.20;;;4.00;;
68140;SDS011;54941;52.220;104.306;2022-11-12T08:43:38;8.13;;;4.25;;
68140;SDS011;54941;52.220;104.306;2022-11-12T08:46:05;9.50;;;4.47;;
68140;SDS011;54941;52.220;104.306;2022-11-12T08:48:32;8.48;;;4.18;;
68140;SDS011;54941;52.220;104.306;2022-11-12T08:50:59;10.82;;;4.55;;
68140;SDS011;54941;52.220;104.306;2022-11-12T08:53:28;9.90;;;4.35;;
68140;SDS011;54941;52.220;104.306;2022-11-12T08:55:54;8.38;;;4.40;;
68140;SDS011;54941;52.220;104.306;2022-11-12T08:58:21;11.55;;;5.45;;
68140;SDS011;54941;52.220;104.306;2022-11-12T09:00:48;8.82;;;4.35;;
68140;SDS011;54941;52.220;104.306;2022-11-12T09:03:15;9.13;;;4.50;;
68140;SDS011;54941;52.220;104.306;2022-11-12T09:05:42;10.35;;;5.03;;
68140;SDS011;54941;52.220;104.306;2022-11-12T09:08:10;8.77;;;5.13;;
68140;SDS011;54941;52.220;104.306;2022-11-12T09:10:39;6.10;;;3.75;;
68140;SDS011;54941;52.220;104.306;2022-11-12T09:13:06;8.85;;;3.80;;
68140;SDS011;54941;52.220;104.306;2022-11-12T09:15:32;6.13;;;3.50;;
68140;SDS011;54941;52.220;104.306;2022-11-12T09:17:59;8.00;;;3.50;;
68140;SDS011;54941;52.220;104.306;2022-11-12T09:20:26;6.32;;;3.28;;
68140;SDS011;54941;52.220;104.306;2022-11-12T09:22:57;7.28;;;4.47;;
68140;SDS011;54941;52.220;104.306;2022-11-12T09:25:23;8.52;;;4.80;;
68140;SDS011;54941;52.220;104.306;2022-11-12T09:27:51;7.97;;;4.85;;
68140;SDS011;54941;52.220;104.306;2022-11-12T09:30:18;9.50;;;5.25;;
68140;SDS011;54941;52.220;104.306;2022-11-12T09:32:44;20.55;;;10.13;;
68140;SDS011;54941;52.220;104.306;2022-11-12T09:35:10;17.25;;;8.68;;
68140;SDS011;54941;52.220;104.306;2022-11-12T09:37:37;10.98;;;6.43;;
68140;SDS011;54941;52.220;104.306;2022-11-12T09:40:04;8.45;;;4.55;;
68140;SDS011;54941;52.220;104.306;2022-11-12T09:42:32;11.50;;;6.03;;
68140;SDS011;54941;52.220;104.306;2022-11-12T09:45:02;13.23;;;6.40;;
68140;SDS011;54941;52.220;104.306;2022-11-12T09:47:33;12.55;;;6.15;;
68140;SDS011;54941;52.220;104.306;2022-11-12T09:50:09;12.98;;;6.45;;
68140;SDS011;54941;52.220;104.306;2022-11-12T09:52:45;11.70;;;5.72;;
68140;SDS011;54941;52.220;104.306;2022-11-12T09:55:16;9.95;;;5.00;;
68140;SDS011;54941;52.220;104.306;2022-11-12T09:57:47;10.85;;;5.20;;
68140;SDS011;54941;52.220;104.306;2022-11-12T10:00:16;9.45;;;4.72;;
68140;SDS011;54941;52.220;104.306;2022-11-12T10:02:45;12.68;;;6.72;;
68140;SDS011;54941;52.220;104.306;2022-11-12T10:05:24;9.02;;;4.80;;
68140;SDS011;54941;52.220;104.306;2022-11-12T10:08:01;8.40;;;3.50;;
68140;SDS011;54941;52.220;104.306;2022-11-12T10:10:40;9.05;;;4.78;;
68140;SDS011;54941;52.220;104.306;2022-11-12T10:13:14;11.18;;;5.15;;
68140;SDS011;54941;52.220;104.306;2022-11-12T10:16:08;10.25;;;5.55;;
68140;SDS011;54941;52.220;104.306;2022-11-12T10:18:48;6.95;;;4.03;;
68140;SDS011;54941;52.220;104.306;2022-11-12T10:21:28;7.60;;;4.22;;
68140;SDS011;54941;52.220;104.306;2022-11-12T10:24:00;7.78;;;4.07;;
68140;SDS011;54941;52.220;104.306;2022-11-12T10:26:28;8.35;;;4.30;;
68140;SDS011;54941;52.220;104.306;2022-11-12T10:28:58;9.45;;;5.03;;
68140;SDS011;54941;52.220;104.306;2022-11-12T10:31:29;16.00;;;8.13;;
68140;SDS011;54941;52.220;104.306;2022-11-12T10:34:00;14.95;;;7.95;;
68140;SDS011;54941;52.220;104.306;2022-11-12T10:36:39;16.08;;;7.45;;
68140;SDS011;54941;52.220;104.306;2022-11-12T10:39:08;19.05;;;9.55;;
68140;SDS011;54941;52.220;104.306;2022-11-12T10:41:34;22.58;;;10.90;;
68140;SDS011;54941;52.220;104.306;2022-11-12T10:44:01;18.88;;;9.23;;
68140;SDS011;54941;52.220;104.306;2022-11-12T10:46:31;16.83;;;7.43;;
68140;SDS011;54941;52.220;104.306;2022-11-12T10:49:00;22.90;;;10.27;;
68140;SDS011;54941;52.220;104.306;2022-11-12T10:51:29;26.13;;;13.00;;
68140;SDS011;54941;52.220;104.306;2022-11-12T10:53:57;13.85;;;6.90;;
68140;SDS011;54941;52.220;104.306;2022-11-12T10:56:27;19.30;;;9.20;;
68140;SDS011;54941;52.220;104.306;2022-11-12T11:01:41;22.95;;;10.77;;
68140;SDS011;54941;52.220;104.306;2022-11-12T11:04:14;21.45;;;11.57;;
68140;SDS011;54941;52.220;104.306;2022-11-12T11:06:44;26.20;;;12.15;;
68140;SDS011;54941;52.220;104.306;2022-11-12T11:09:15;15.63;;;7.90;;
68140;SDS011;54941;52.220;104.306;2022-11-12T11:11:48;19.15;;;8.35;;
68140;SDS011;54941;52.220;104.306;2022-11-12T11:14:26;18.55;;;7.65;;
68140;SDS011;54941;52.220;104.306;2022-11-12T11:16:57;14.05;;;6.70;;
68140;SDS011;54941;52.220;104.306;2022-11-12T11:19:27;10.60;;;5.75;;
68140;SDS011;54941;52.220;104.306;2022-11-12T11:22:02;17.98;;;8.00;;
68140;SDS011;54941;52.220;104.306;2022-11-12T11:25:05;15.00;;;7.32;;
68140;SDS011;54941;52.220;104.306;2022-11-12T11:27:40;14.07;;;7.10;;
68140;SDS011;54941;52.220;104.306;2022-11-12T11:30:20;15.13;;;7.68;;
68140;SDS011;54941;52.220;104.306;2022-11-12T11:35:47;16.27;;;7.57;;
68140;SDS011;54941;52.220;104.306;2022-11-12T11:38:31;25.50;;;11.35;;
68140;SDS011;54941;52.220;104.306;2022-11-12T11:41:07;20.55;;;9.45;;
68140;SDS011;54941;52.220;104.306;2022-11-12T11:43:44;13.88;;;7.45;;
68140;SDS011;54941;52.220;104.306;2022-11-12T11:46:23;21.17;;;9.07;;
68140;SDS011;54941;52.220;104.306;2022-11-12T11:49:06;25.45;;;12.00;;
68140;SDS011;54941;52.220;104.306;2022-11-12T11:51:50;21.20;;;10.25;;
68140;SDS011;54941;52.220;104.306;2022-11-12T11:54:26;19.77;;;10.90;;
68140;SDS011;54941;52.220;104.306;2022-11-12T11:57:17;20.20;;;10.25;;
68140;SDS011;54941;52.220;104.306;2022-11-12T11:59:52;18.67;;;9.13;;
68140;SDS011;54941;52.220;104.306;2022-11-12T12:05:35;15.98;;;8.25;;
68140;SDS011;54941;52.220;104.306;2022-11-12T12:08:07;21.00;;;10.70;;
68140;SDS011;54941;52.220;104.306;2022-11-12T12:10:39;21.92;;;10.68;;
68140;SDS011;54941;52.220;104.306;2022-11-12T12:13:12;16.88;;;8.00;;
68140;SDS011;54941;52.220;104.306;2022-11-12T12:15:49;12.10;;;6.28;;
68140;SDS011;54941;52.220;104.306;2022-11-12T12:18:27;11.90;;;5.45;;
68140;SDS011;54941;52.220;104.306;2022-11-12T12:21:04;10.52;;;5.43;;
68140;SDS011;54941;52.220;104.306;2022-11-12T12:23:35;10.48;;;5.43;;
68140;SDS011;54941;52.220;104.306;2022-11-12T12:26:09;13.13;;;6.22;;
68140;SDS011;54941;52.220;104.306;2022-11-12T12:28:39;14.82;;;6.90;;
68140;SDS011;54941;52.220;104.306;2022-11-12T12:31:10;18.92;;;8.68;;
68140;SDS011;54941;52.220;104.306;2022-11-12T12:33:41;18.15;;;9.07;;
68140;SDS011;54941;52.220;104.306;2022-11-12T12:36:14;14.40;;;5.95;;
68140;SDS011;54941;52.220;104.306;2022-11-12T12:38:43;12.57;;;6.15;;
68140;SDS011;54941;52.220;104.306;2022-11-12T12:41:15;12.00;;;6.20;;
68140;SDS011;54941;52.220;104.306;2022-11-12T12:43:47;11.80;;;6.18;;
68140;SDS011;54941;52.220;104.306;2022-11-12T12:46:19;14.32;;;7.47;;
68140;SDS011;54941;52.220;104.306;2022-11-12T12:48:49;17.98;;;7.85;;
68140;SDS011;54941;52.220;104.306;2022-11-12T12:51:19;12.07;;;6.30;;
68140;SDS011;54941;52.220;104.306;2022-11-12T12:53:47;23.75;;;11.18;;
68140;SDS011;54941;52.220;104.306;2022-11-12T12:59:16;16.33;;;8.02;;
68140;SDS011;54941;52.220;104.306;2022-11-12T13:01:44;15.95;;;8.02;;
68140;SDS011;54941;52.220;104.306;2022-11-12T13:07:02;12.52;;;5.80;;
68140;SDS011;54941;52.220;104.306;2022-11-12T13:09:29;12.77;;;5.93;;
68140;SDS011;54941;52.220;104.306;2022-11-12T13:11:55;15.70;;;6.78;;
68140;SDS011;54941;52.220;104.306;2022-11-12T13:23:00;16.52;;;9.18;;
68140;SDS011;54941;52.220;104.306;2022-11-12T13:25:27;20.15;;;9.68;;
68140;SDS011;54941;52.220;104.306;2022-11-12T13:30:59;13.20;;;6.32;;
68140;SDS011;54941;52.220;104.306;2022-11-12T13:33:29;17.20;;;9.10;;
68140;SDS011;54941;52.220;104.306;2022-11-12T13:36:16;16.00;;;7.90;;
68140;SDS011;54941;52.220;104.306;2022-11-12T13:38:51;20.05;;;9.85;;
68140;SDS011;54941;52.220;104.306;2022-11-12T13:41:19;14.70;;;8.38;;
68140;SDS011;54941;52.220;104.306;2022-11-12T13:43:47;17.33;;;9.43;;
68140;SDS011;54941;52.220;104.306;2022-11-12T13:46:19;14.63;;;7.90;;
68140;SDS011;54941;52.220;104.306;2022-11-12T13:48:51;14.38;;;6.85;;
68140;SDS011;54941;52.220;104.306;2022-11-12T13:51:25;11.98;;;6.25;;
68140;SDS011;54941;52.220;104.306;2022-11-12T13:54:00;12.73;;;6.28;;
68140;SDS011;54941;52.220;104.306;2022-11-12T13:56:27;12.43;;;5.93;;
68140;SDS011;54941;52.220;104.306;2022-11-12T13:59:03;24.80;;;10.90;;
68140;SDS011;54941;52.220;104.306;2022-11-12T14:01:38;18.27;;;8.65;;
68140;SDS011;54941;52.220;104.306;2022-11-12T14:04:04;11.65;;;5.80;;
68140;SDS011;54941;52.220;104.306;2022-11-12T14:06:33;14.90;;;7.40;;
68140;SDS011;54941;52.220;104.306;2022-11-12T14:09:10;17.15;;;8.02;;
68140;SDS011;54941;52.220;104.306;2022-11-12T14:11:52;24.83;;;13.05;;
68140;SDS011;54941;52.220;104.306;2022-11-12T14:14:34;23.25;;;12.20;;
68140;SDS011;54941;52.220;104.306;2022-11-12T14:17:17;19.02;;;9.20;;
68140;SDS011;54941;52.220;104.306;2022-11-12T14:22:47;22.70;;;11.18;;
68140;SDS011;54941;52.220;104.306;2022-11-12T14:25:17;12.75;;;6.65;;
68140;SDS011;54941;52.220;104.306;2022-11-12T14:27:46;8.82;;;5.18;;
68140;SDS011;54941;52.220;104.306;2022-11-12T14:30:14;15.25;;;7.88;;
68140;SDS011;54941;52.220;104.306;2022-11-12T14:32:43;13.73;;;7.35;;
68140;SDS011;54941;52.220;104.306;2022-11-12T14:35:27;18.40;;;9.82;;
68140;SDS011;54941;52.220;104.306;2022-11-12T14:37:57;20.42;;;10.20;;
68140;SDS011;54941;52.220;104.306;2022-11-12T14:40:34;10.07;;;6.35;;
68140;SDS011;54941;52.220;104.306;2022-11-12T14:43:03;18.33;;;9.93;;
68140;SDS011;54941;52.220;104.306;2022-11-12T14:45:30;14.63;;;7.07;;
68140;SDS011;54941;52.220;104.306;2022-11-12T14:47:57;13.65;;;6.95;;
68140;SDS011;54941;52.220;104.306;2022-11-12T14:50:24;10.35;;;5.85;;
68140;SDS011;54941;52.220;104.306;2022-11-12T14:52:54;16.85;;;8.55;;
68140;SDS011;54941;52.220;104.306;2022-11-12T14:55:25;16.55;;;7.72;;